sensor_id;sensor_type;location;lat;lon;timestamp;P1;P2;P0
55754;PMS5003;41674;52.290;-1.474;2023-04-23T00:01:02;36;35;
55754;PMS5003;41674;52.290;-1.474;2023-04-23T00:03:31;30;28;
55754;PMS5003;41674;52.290;-1.474;2023-04-23T00:06:01;37;34;
55754;PMS5003;41674;52.290;-1.474;2023-04-23T00:08:30;39;35;
55754;PMS5003;41674;52.290;-1.474;2023-04-23T00:10:59;43;38;
55754;PMS5003;41674;52.290;-1.474;2023-04-23T00:13:29;41;36;
55754;PMS5003;41674;52.290;-1.474;2023-04-23T00:15:57;39;34;
55754;PMS5003;41674;52.290;-1.474;2023-04-23T00:18:27;43;39;
55754;PMS5003;41674;52.290;-1.474;2023-04-23T00:20:56;37;33;
55754;PMS5003;41674;52.290;-1.474;2023-04-23T00:23:27;35;32;
55754;PMS5003;41674;52.290;-1.474;2023-04-23T00:25:55;38;36;
55754;PMS5003;41674;52.290;-1.474;2023-04-23T00:28:24;35;31;
55754;PMS5003;41674;52.290;-1.474;2023-04-23T00:30:53;40;33;
55754;PMS5003;41674;52.290;-1.474;2023-04-23T00:33:23;38;35;
55754;PMS5003;41674;52.290;-1.474;2023-04-23T00:35:53;38;35;
55754;PMS5003;41674;52.290;-1.474;2023-04-23T00:38:22;40;35;
55754;PMS5003;41674;52.290;-1.474;2023-04-23T00:40:52;40;36;
55754;PMS5003;41674;52.290;-1.474;2023-04-23T00:43:21;37;34;
55754;PMS5003;41674;52.290;-1.474;2023-04-23T00:45:51;38;35;
55754;PMS5003;41674;52.290;-1.474;2023-04-23T00:48:20;39;37;
55754;PMS5003;41674;52.290;-1.474;2023-04-23T00:53:20;41;35;
55754;PMS5003;41674;52.290;-1.474;2023-04-23T00:55:49;42;36;
55754;PMS5003;41674;52.290;-1.474;2023-04-23T00:58:18;51;46;
55754;PMS5003;41674;52.290;-1.474;2023-04-23T01:00:47;40;34;
55754;PMS5003;41674;52.290;-1.474;2023-04-23T01:03:17;48;40;
55754;PMS5003;41674;52.290;-1.474;2023-04-23T01:05:46;43;35;
55754;PMS5003;41674;52.290;-1.474;2023-04-23T01:08:16;41;35;
55754;PMS5003;41674;52.290;-1.474;2023-04-23T01:10:46;37;35;
55754;PMS5003;41674;52.290;-1.474;2023-04-23T01:13:14;46;37;
55754;PMS5003;41674;52.290;-1.474;2023-04-23T01:15:44;37;33;
55754;PMS5003;41674;52.290;-1.474;2023-04-23T01:18:13;35;32;
55754;PMS5003;41674;52.290;-1.474;2023-04-23T01:20:43;38;36;
55754;PMS5003;41674;52.290;-1.474;2023-04-23T01:23:12;40;37;
55754;PMS5003;41674;52.290;-1.474;2023-04-23T01:25:42;37;34;
55754;PMS5003;41674;52.290;-1.474;2023-04-23T01:28:12;42;38;
55754;PMS5003;41674;52.290;-1.474;2023-04-23T01:30:42;40;33;
55754;PMS5003;41674;52.290;-1.474;2023-04-23T01:33:11;41;36;
55754;PMS5003;41674;52.290;-1.474;2023-04-23T01:35:40;37;32;
55754;PMS5003;41674;52.290;-1.474;2023-04-23T01:38:10;41;37;
55754;PMS5003;41674;52.290;-1.474;2023-04-23T01:40:38;38;32;
55754;PMS5003;41674;52.290;-1.474;2023-04-23T01:43:08;37;34;
55754;PMS5003;41674;52.290;-1.474;2023-04-23T01:45:37;38;36;
55754;PMS5003;41674;52.290;-1.474;2023-04-23T01:48:07;40;36;
55754;PMS5003;41674;52.290;-1.474;2023-04-23T01:50:36;37;34;
55754;PMS5003;41674;52.290;-1.474;2023-04-23T01:53:06;39;33;
55754;PMS5003;41674;52.290;-1.474;2023-04-23T01:55:36;39;33;
55754;PMS5003;41674;52.290;-1.474;2023-04-23T01:58:05;43;34;
55754;PMS5003;41674;52.290;-1.474;2023-04-23T02:00:34;37;32;
55754;PMS5003;41674;52.290;-1.474;2023-04-23T02:03:03;32;29;
55754;PMS5003;41674;52.290;-1.474;2023-04-23T02:05:33;34;31;
55754;PMS5003;41674;52.290;-1.474;2023-04-23T02:08:02;32;29;
55754;PMS5003;41674;52.290;-1.474;2023-04-23T02:10:31;35;30;
55754;PMS5003;41674;52.290;-1.474;2023-04-23T02:13:01;35;33;
55754;PMS5003;41674;52.290;-1.474;2023-04-23T02:15:30;29;27;
55754;PMS5003;41674;52.290;-1.474;2023-04-23T02:18:00;31;29;
55754;PMS5003;41674;52.290;-1.474;2023-04-23T02:20:29;30;26;
55754;PMS5003;41674;52.290;-1.474;2023-04-23T02:22:58;29;26;
55754;PMS5003;41674;52.290;-1.474;2023-04-23T02:25:28;29;26;
55754;PMS5003;41674;52.290;-1.474;2023-04-23T02:27:57;36;32;
55754;PMS5003;41674;52.290;-1.474;2023-04-23T02:30:27;27;26;
55754;PMS5003;41674;52.290;-1.474;2023-04-23T02:32:56;29;27;
55754;PMS5003;41674;52.290;-1.474;2023-04-23T02:35:26;33;30;
55754;PMS5003;41674;52.290;-1.474;2023-04-23T02:37:55;27;25;
55754;PMS5003;41674;52.290;-1.474;2023-04-23T02:40:25;34;28;
55754;PMS5003;41674;52.290;-1.474;2023-04-23T02:42:54;29;26;
55754;PMS5003;41674;52.290;-1.474;2023-04-23T02:45:24;28;23;
55754;PMS5003;41674;52.290;-1.474;2023-04-23T02:47:53;27;22;
55754;PMS5003;41674;52.290;-1.474;2023-04-23T02:50:23;30;25;
55754;PMS5003;41674;52.290;-1.474;2023-04-23T02:52:52;27;25;
55754;PMS5003;41674;52.290;-1.474;2023-04-23T02:55:21;30;25;
55754;PMS5003;41674;52.290;-1.474;2023-04-23T02:57:50;26;23;
55754;PMS5003;41674;52.290;-1.474;2023-04-23T03:00:19;24;21;
55754;PMS5003;41674;52.290;-1.474;2023-04-23T03:02:49;30;25;
55754;PMS5003;41674;52.290;-1.474;2023-04-23T03:05:18;20;20;
55754;PMS5003;41674;52.290;-1.474;2023-04-23T03:07:48;25;21;
55754;PMS5003;41674;52.290;-1.474;2023-04-23T03:10:17;25;23;
55754;PMS5003;41674;52.290;-1.474;2023-04-23T03:12:47;22;19;
55754;PMS5003;41674;52.290;-1.474;2023-04-23T03:15:16;25;23;
55754;PMS5003;41674;52.290;-1.474;2023-04-23T03:17:46;28;22;
55754;PMS5003;41674;52.290;-1.474;2023-04-23T03:20:15;22;21;
55754;PMS5003;41674;52.290;-1.474;2023-04-23T03:22:45;22;20;
55754;PMS5003;41674;52.290;-1.474;2023-04-23T03:25:15;25;21;
55754;PMS5003;41674;52.290;-1.474;2023-04-23T03:27:44;18;18;
55754;PMS5003;41674;52.290;-1.474;2023-04-23T03:30:13;25;23;
55754;PMS5003;41674;52.290;-1.474;2023-04-23T03:32:43;20;20;
55754;PMS5003;41674;52.290;-1.474;2023-04-23T03:35:12;19;17;
55754;PMS5003;41674;52.290;-1.474;2023-04-23T03:37:41;27;22;
55754;PMS5003;41674;52.290;-1.474;2023-04-23T03:40:11;21;18;
55754;PMS5003;41674;52.290;-1.474;2023-04-23T03:42:40;25;21;
55754;PMS5003;41674;52.290;-1.474;2023-04-23T03:45:10;19;19;
55754;PMS5003;41674;52.290;-1.474;2023-04-23T03:47:40;20;17;
55754;PMS5003;41674;52.290;-1.474;2023-04-23T03:50:09;23;19;
55754;PMS5003;41674;52.290;-1.474;2023-04-23T03:52:39;21;19;
55754;PMS5003;41674;52.290;-1.474;2023-04-23T03:55:09;22;19;
55754;PMS5003;41674;52.290;-1.474;2023-04-23T03:57:38;21;21;
55754;PMS5003;41674;52.290;-1.474;2023-04-23T04:00:08;25;19;
55754;PMS5003;41674;52.290;-1.474;2023-04-23T04:02:37;20;19;
55754;PMS5003;41674;52.290;-1.474;2023-04-23T04:05:06;23;21;
55754;PMS5003;41674;52.290;-1.474;2023-04-23T04:07:35;21;20;
55754;PMS5003;41674;52.290;-1.474;2023-04-23T04:10:05;26;24;
55754;PMS5003;41674;52.290;-1.474;2023-04-23T04:12:35;20;19;
55754;PMS5003;41674;52.290;-1.474;2023-04-23T04:15:04;32;26;
55754;PMS5003;41674;52.290;-1.474;2023-04-23T04:17:33;29;26;
55754;PMS5003;41674;52.290;-1.474;2023-04-23T04:20:03;30;27;
55754;PMS5003;41674;52.290;-1.474;2023-04-23T04:22:33;27;27;
55754;PMS5003;41674;52.290;-1.474;2023-04-23T04:25:02;28;23;
55754;PMS5003;41674;52.290;-1.474;2023-04-23T04:27:31;27;25;
55754;PMS5003;41674;52.290;-1.474;2023-04-23T04:30:00;27;24;
55754;PMS5003;41674;52.290;-1.474;2023-04-23T04:32:29;30;23;
55754;PMS5003;41674;52.290;-1.474;2023-04-23T04:34:58;26;25;
55754;PMS5003;41674;52.290;-1.474;2023-04-23T04:37:28;22;22;
55754;PMS5003;41674;52.290;-1.474;2023-04-23T04:39:58;26;21;
55754;PMS5003;41674;52.290;-1.474;2023-04-23T04:42:27;31;25;
55754;PMS5003;41674;52.290;-1.474;2023-04-23T04:44:57;24;24;
55754;PMS5003;41674;52.290;-1.474;2023-04-23T04:47:26;23;21;
55754;PMS5003;41674;52.290;-1.474;2023-04-23T04:49:56;30;28;
55754;PMS5003;41674;52.290;-1.474;2023-04-23T04:52:26;29;26;
55754;PMS5003;41674;52.290;-1.474;2023-04-23T04:55:00;24;23;
55754;PMS5003;41674;52.290;-1.474;2023-04-23T04:57:25;34;29;
55754;PMS5003;41674;52.290;-1.474;2023-04-23T04:59:54;34;31;
55754;PMS5003;41674;52.290;-1.474;2023-04-23T05:02:24;45;37;
55754;PMS5003;41674;52.290;-1.474;2023-04-23T05:04:53;37;31;
55754;PMS5003;41674;52.290;-1.474;2023-04-23T05:07:23;36;32;
55754;PMS5003;41674;52.290;-1.474;2023-04-23T05:09:57;32;30;
55754;PMS5003;41674;52.290;-1.474;2023-04-23T05:12:22;31;28;
55754;PMS5003;41674;52.290;-1.474;2023-04-23T05:14:51;34;31;
55754;PMS5003;41674;52.290;-1.474;2023-04-23T05:17:21;39;34;
55754;PMS5003;41674;52.290;-1.474;2023-04-23T05:19:50;36;31;
55754;PMS5003;41674;52.290;-1.474;2023-04-23T05:22:20;37;31;
55754;PMS5003;41674;52.290;-1.474;2023-04-23T05:24:49;44;38;
55754;PMS5003;41674;52.290;-1.474;2023-04-23T05:27:18;38;35;
55754;PMS5003;41674;52.290;-1.474;2023-04-23T05:29:53;41;38;
55754;PMS5003;41674;52.290;-1.474;2023-04-23T05:32:17;43;37;
55754;PMS5003;41674;52.290;-1.474;2023-04-23T05:34:47;49;40;
55754;PMS5003;41674;52.290;-1.474;2023-04-23T05:37:17;50;37;
55754;PMS5003;41674;52.290;-1.474;2023-04-23T05:39:46;42;39;
55754;PMS5003;41674;52.290;-1.474;2023-04-23T05:42:14;41;36;
55754;PMS5003;41674;52.290;-1.474;2023-04-23T05:44:44;35;33;
55754;PMS5003;41674;52.290;-1.474;2023-04-23T05:47:13;39;36;
55754;PMS5003;41674;52.290;-1.474;2023-04-23T05:49:43;33;31;
55754;PMS5003;41674;52.290;-1.474;2023-04-23T05:52:12;44;36;
55754;PMS5003;41674;52.290;-1.474;2023-04-23T05:54:41;45;37;
55754;PMS5003;41674;52.290;-1.474;2023-04-23T05:57:10;40;34;
55754;PMS5003;41674;52.290;-1.474;2023-04-23T05:59:40;39;35;
55754;PMS5003;41674;52.290;-1.474;2023-04-23T06:02:10;40;35;
55754;PMS5003;41674;52.290;-1.474;2023-04-23T06:04:40;44;35;
55754;PMS5003;41674;52.290;-1.474;2023-04-23T06:07:09;32;30;
55754;PMS5003;41674;52.290;-1.474;2023-04-23T06:09:39;40;33;
55754;PMS5003;41674;52.290;-1.474;2023-04-23T06:12:09;47;40;
55754;PMS5003;41674;52.290;-1.474;2023-04-23T06:14:38;38;34;
55754;PMS5003;41674;52.290;-1.474;2023-04-23T06:17:07;41;38;
55754;PMS5003;41674;52.290;-1.474;2023-04-23T06:19:37;43;39;
55754;PMS5003;41674;52.290;-1.474;2023-04-23T06:22:06;40;35;
55754;PMS5003;41674;52.290;-1.474;2023-04-23T06:24:36;44;38;
55754;PMS5003;41674;52.290;-1.474;2023-04-23T06:27:05;41;37;
55754;PMS5003;41674;52.290;-1.474;2023-04-23T06:29:35;43;38;
55754;PMS5003;41674;52.290;-1.474;2023-04-23T06:32:04;48;37;
55754;PMS5003;41674;52.290;-1.474;2023-04-23T06:34:34;46;45;
55754;PMS5003;41674;52.290;-1.474;2023-04-23T06:37:03;42;38;
55754;PMS5003;41674;52.290;-1.474;2023-04-23T06:39:32;48;41;
55754;PMS5003;41674;52.290;-1.474;2023-04-23T06:42:02;39;35;
55754;PMS5003;41674;52.290;-1.474;2023-04-23T06:44:31;50;40;
55754;PMS5003;41674;52.290;-1.474;2023-04-23T06:47:01;51;41;
55754;PMS5003;41674;52.290;-1.474;2023-04-23T06:49:30;51;41;
55754;PMS5003;41674;52.290;-1.474;2023-04-23T06:51:59;47;40;
55754;PMS5003;41674;52.290;-1.474;2023-04-23T06:54:29;46;37;
55754;PMS5003;41674;52.290;-1.474;2023-04-23T06:56:58;49;39;
55754;PMS5003;41674;52.290;-1.474;2023-04-23T06:59:27;46;38;
55754;PMS5003;41674;52.290;-1.474;2023-04-23T07:01:57;47;40;
55754;PMS5003;41674;52.290;-1.474;2023-04-23T07:04:26;45;41;
55754;PMS5003;41674;52.290;-1.474;2023-04-23T07:06:56;44;35;
55754;PMS5003;41674;52.290;-1.474;2023-04-23T07:09:25;41;38;
55754;PMS5003;41674;52.290;-1.474;2023-04-23T07:11:55;49;42;
55754;PMS5003;41674;52.290;-1.474;2023-04-23T07:14:24;40;38;
55754;PMS5003;41674;52.290;-1.474;2023-04-23T07:16:54;52;42;
55754;PMS5003;41674;52.290;-1.474;2023-04-23T07:19:23;50;42;
55754;PMS5003;41674;52.290;-1.474;2023-04-23T07:21:53;43;40;
55754;PMS5003;41674;52.290;-1.474;2023-04-23T07:24:22;40;38;
55754;PMS5003;41674;52.290;-1.474;2023-04-23T07:26:51;42;38;
55754;PMS5003;41674;52.290;-1.474;2023-04-23T07:29:21;45;40;
55754;PMS5003;41674;52.290;-1.474;2023-04-23T07:31:50;43;37;
55754;PMS5003;41674;52.290;-1.474;2023-04-23T07:34:20;45;38;
55754;PMS5003;41674;52.290;-1.474;2023-04-23T07:36:49;45;35;
55754;PMS5003;41674;52.290;-1.474;2023-04-23T07:39:19;46;39;
55754;PMS5003;41674;52.290;-1.474;2023-04-23T07:41:49;46;37;
55754;PMS5003;41674;52.290;-1.474;2023-04-23T07:44:18;45;33;
55754;PMS5003;41674;52.290;-1.474;2023-04-23T07:46:48;48;37;
55754;PMS5003;41674;52.290;-1.474;2023-04-23T07:49:17;42;37;
55754;PMS5003;41674;52.290;-1.474;2023-04-23T07:51:47;43;37;
55754;PMS5003;41674;52.290;-1.474;2023-04-23T07:54:16;42;33;
55754;PMS5003;41674;52.290;-1.474;2023-04-23T07:56:46;41;32;
55754;PMS5003;41674;52.290;-1.474;2023-04-23T07:59:15;42;35;
55754;PMS5003;41674;52.290;-1.474;2023-04-23T08:01:45;42;35;
55754;PMS5003;41674;52.290;-1.474;2023-04-23T08:04:14;42;34;
55754;PMS5003;41674;52.290;-1.474;2023-04-23T08:06:44;43;35;
55754;PMS5003;41674;52.290;-1.474;2023-04-23T08:09:14;39;32;
55754;PMS5003;41674;52.290;-1.474;2023-04-23T08:11:43;43;35;
55754;PMS5003;41674;52.290;-1.474;2023-04-23T08:14:12;43;38;
55754;PMS5003;41674;52.290;-1.474;2023-04-23T08:16:42;44;39;
55754;PMS5003;41674;52.290;-1.474;2023-04-23T08:19:11;41;34;
55754;PMS5003;41674;52.290;-1.474;2023-04-23T08:21:41;38;36;
55754;PMS5003;41674;52.290;-1.474;2023-04-23T08:24:11;46;35;
55754;PMS5003;41674;52.290;-1.474;2023-04-23T08:26:41;41;33;
55754;PMS5003;41674;52.290;-1.474;2023-04-23T08:29:10;42;35;
55754;PMS5003;41674;52.290;-1.474;2023-04-23T08:31:39;43;39;
55754;PMS5003;41674;52.290;-1.474;2023-04-23T08:34:08;40;35;
55754;PMS5003;41674;52.290;-1.474;2023-04-23T08:36:37;38;33;
55754;PMS5003;41674;52.290;-1.474;2023-04-23T08:39:07;36;31;
55754;PMS5003;41674;52.290;-1.474;2023-04-23T08:41:38;34;31;
55754;PMS5003;41674;52.290;-1.474;2023-04-23T08:44:07;43;34;
55754;PMS5003;41674;52.290;-1.474;2023-04-23T08:46:36;42;34;
55754;PMS5003;41674;52.290;-1.474;2023-04-23T08:49:05;35;35;
55754;PMS5003;41674;52.290;-1.474;2023-04-23T08:51:34;39;30;
55754;PMS5003;41674;52.290;-1.474;2023-04-23T08:54:04;41;35;
55754;PMS5003;41674;52.290;-1.474;2023-04-23T08:56:33;39;31;
55754;PMS5003;41674;52.290;-1.474;2023-04-23T08:59:02;40;32;
55754;PMS5003;41674;52.290;-1.474;2023-04-23T09:01:32;42;32;
55754;PMS5003;41674;52.290;-1.474;2023-04-23T09:04:01;36;30;
55754;PMS5003;41674;52.290;-1.474;2023-04-23T09:06:30;32;31;
55754;PMS5003;41674;52.290;-1.474;2023-04-23T09:09:00;38;30;
55754;PMS5003;41674;52.290;-1.474;2023-04-23T09:11:29;31;30;
55754;PMS5003;41674;52.290;-1.474;2023-04-23T09:13:58;35;30;
55754;PMS5003;41674;52.290;-1.474;2023-04-23T09:16:28;26;22;
55754;PMS5003;41674;52.290;-1.474;2023-04-23T09:18:58;31;29;
55754;PMS5003;41674;52.290;-1.474;2023-04-23T09:21:27;33;28;
55754;PMS5003;41674;52.290;-1.474;2023-04-23T09:23:56;28;26;
55754;PMS5003;41674;52.290;-1.474;2023-04-23T09:26:25;30;29;
55754;PMS5003;41674;52.290;-1.474;2023-04-23T09:28:55;31;28;
55754;PMS5003;41674;52.290;-1.474;2023-04-23T09:31:24;34;31;
55754;PMS5003;41674;52.290;-1.474;2023-04-23T09:33:53;27;26;
55754;PMS5003;41674;52.290;-1.474;2023-04-23T09:36:23;23;23;
55754;PMS5003;41674;52.290;-1.474;2023-04-23T09:38:54;33;25;
55754;PMS5003;41674;52.290;-1.474;2023-04-23T09:41:22;29;25;
55754;PMS5003;41674;52.290;-1.474;2023-04-23T09:43:52;36;29;
55754;PMS5003;41674;52.290;-1.474;2023-04-23T09:48:49;27;23;
55754;PMS5003;41674;52.290;-1.474;2023-04-23T09:51:19;19;19;
55754;PMS5003;41674;52.290;-1.474;2023-04-23T09:53:48;16;14;
55754;PMS5003;41674;52.290;-1.474;2023-04-23T09:56:18;18;15;
55754;PMS5003;41674;52.290;-1.474;2023-04-23T09:58:47;17;16;
55754;PMS5003;41674;52.290;-1.474;2023-04-23T10:01:17;20;18;
55754;PMS5003;41674;52.290;-1.474;2023-04-23T10:03:46;23;21;
55754;PMS5003;41674;52.290;-1.474;2023-04-23T10:06:16;20;19;
55754;PMS5003;41674;52.290;-1.474;2023-04-23T10:08:44;21;19;
55754;PMS5003;41674;52.290;-1.474;2023-04-23T10:11:14;25;21;
55754;PMS5003;41674;52.290;-1.474;2023-04-23T10:13:44;27;21;
55754;PMS5003;41674;52.290;-1.474;2023-04-23T10:16:13;24;22;
55754;PMS5003;41674;52.290;-1.474;2023-04-23T10:18:43;27;24;
55754;PMS5003;41674;52.290;-1.474;2023-04-23T10:21:12;23;20;
55754;PMS5003;41674;52.290;-1.474;2023-04-23T10:23:42;17;15;
55754;PMS5003;41674;52.290;-1.474;2023-04-23T10:26:11;14;14;
55754;PMS5003;41674;52.290;-1.474;2023-04-23T10:28:41;14;13;
55754;PMS5003;41674;52.290;-1.474;2023-04-23T10:31:10;18;16;
55754;PMS5003;41674;52.290;-1.474;2023-04-23T10:33:40;20;18;
55754;PMS5003;41674;52.290;-1.474;2023-04-23T10:36:09;18;17;
55754;PMS5003;41674;52.290;-1.474;2023-04-23T10:38:39;19;18;
55754;PMS5003;41674;52.290;-1.474;2023-04-23T10:41:08;18;15;
55754;PMS5003;41674;52.290;-1.474;2023-04-23T10:43:39;18;16;
55754;PMS5003;41674;52.290;-1.474;2023-04-23T10:51:07;19;19;
55754;PMS5003;41674;52.290;-1.474;2023-04-23T10:53:37;21;19;
55754;PMS5003;41674;52.290;-1.474;2023-04-23T10:56:07;21;18;
55754;PMS5003;41674;52.290;-1.474;2023-04-23T11:01:06;18;16;
55754;PMS5003;41674;52.290;-1.474;2023-04-23T11:03:36;15;13;
55754;PMS5003;41674;52.290;-1.474;2023-04-23T11:06:04;13;13;
55754;PMS5003;41674;52.290;-1.474;2023-04-23T11:08:34;12;12;
55754;PMS5003;41674;52.290;-1.474;2023-04-23T11:11:05;19;17;
55754;PMS5003;41674;52.290;-1.474;2023-04-23T11:13:33;16;14;
55754;PMS5003;41674;52.290;-1.474;2023-04-23T11:21:03;19;17;
55754;PMS5003;41674;52.290;-1.474;2023-04-23T11:23:30;23;20;
55754;PMS5003;41674;52.290;-1.474;2023-04-23T11:26:00;21;19;
55754;PMS5003;41674;52.290;-1.474;2023-04-23T11:28:30;20;19;
55754;PMS5003;41674;52.290;-1.474;2023-04-23T11:30:59;20;19;
55754;PMS5003;41674;52.290;-1.474;2023-04-23T11:33:28;19;17;
55754;PMS5003;41674;52.290;-1.474;2023-04-23T11:35:57;22;19;
55754;PMS5003;41674;52.290;-1.474;2023-04-23T11:38:30;17;16;
55754;PMS5003;41674;52.290;-1.474;2023-04-23T11:40:57;23;20;
55754;PMS5003;41674;52.290;-1.474;2023-04-23T11:43:26;26;22;
55754;PMS5003;41674;52.290;-1.474;2023-04-23T11:45:56;23;22;
55754;PMS5003;41674;52.290;-1.474;2023-04-23T11:48:25;23;21;
55754;PMS5003;41674;52.290;-1.474;2023-04-23T11:50:55;21;18;
55754;PMS5003;41674;52.290;-1.474;2023-04-23T11:53:24;20;20;
55754;PMS5003;41674;52.290;-1.474;2023-04-23T11:55:54;20;18;
55754;PMS5003;41674;52.290;-1.474;2023-04-23T11:58:23;27;19;
55754;PMS5003;41674;52.290;-1.474;2023-04-23T12:00:56;17;17;
55754;PMS5003;41674;52.290;-1.474;2023-04-23T12:03:24;16;15;
55754;PMS5003;41674;52.290;-1.474;2023-04-23T12:05:52;19;17;
55754;PMS5003;41674;52.290;-1.474;2023-04-23T12:08:22;22;22;
55754;PMS5003;41674;52.290;-1.474;2023-04-23T12:10:52;21;21;
55754;PMS5003;41674;52.290;-1.474;2023-04-23T12:13:22;23;20;
55754;PMS5003;41674;52.290;-1.474;2023-04-23T12:15:52;23;19;
55754;PMS5003;41674;52.290;-1.474;2023-04-23T12:18:26;19;19;
55754;PMS5003;41674;52.290;-1.474;2023-04-23T12:20:51;17;17;
55754;PMS5003;41674;52.290;-1.474;2023-04-23T12:23:24;18;17;
55754;PMS5003;41674;52.290;-1.474;2023-04-23T12:25:51;17;17;
55754;PMS5003;41674;52.290;-1.474;2023-04-23T12:28:22;14;13;
55754;PMS5003;41674;52.290;-1.474;2023-04-23T12:30:51;15;14;
55754;PMS5003;41674;52.290;-1.474;2023-04-23T12:35:51;17;15;
55754;PMS5003;41674;52.290;-1.474;2023-04-23T12:45:47;14;13;
55754;PMS5003;41674;52.290;-1.474;2023-04-23T12:48:16;20;18;
55754;PMS5003;41674;52.290;-1.474;2023-04-23T12:50:51;16;15;
55754;PMS5003;41674;52.290;-1.474;2023-04-23T12:53:14;16;13;
55754;PMS5003;41674;52.290;-1.474;2023-04-23T12:55:44;16;14;
55754;PMS5003;41674;52.290;-1.474;2023-04-23T12:58:13;16;14;
55754;PMS5003;41674;52.290;-1.474;2023-04-23T13:00:43;14;14;
55754;PMS5003;41674;52.290;-1.474;2023-04-23T13:03:12;18;17;
55754;PMS5003;41674;52.290;-1.474;2023-04-23T13:05:42;13;13;
55754;PMS5003;41674;52.290;-1.474;2023-04-23T13:08:11;14;14;
55754;PMS5003;41674;52.290;-1.474;2023-04-23T13:10:41;15;12;
55754;PMS5003;41674;52.290;-1.474;2023-04-23T13:13:11;14;12;
55754;PMS5003;41674;52.290;-1.474;2023-04-23T13:15:40;13;11;
55754;PMS5003;41674;52.290;-1.474;2023-04-23T13:18:10;11;10;
55754;PMS5003;41674;52.290;-1.474;2023-04-23T13:20:39;18;14;
55754;PMS5003;41674;52.290;-1.474;2023-04-23T13:23:09;14;13;
55754;PMS5003;41674;52.290;-1.474;2023-04-23T13:25:38;19;17;
55754;PMS5003;41674;52.290;-1.474;2023-04-23T13:28:07;13;13;
55754;PMS5003;41674;52.290;-1.474;2023-04-23T13:30:37;22;18;
55754;PMS5003;41674;52.290;-1.474;2023-04-23T13:33:07;21;18;
55754;PMS5003;41674;52.290;-1.474;2023-04-23T13:35:36;20;19;
55754;PMS5003;41674;52.290;-1.474;2023-04-23T13:38:06;26;23;
55754;PMS5003;41674;52.290;-1.474;2023-04-23T13:40:35;25;21;
55754;PMS5003;41674;52.290;-1.474;2023-04-23T13:43:04;19;19;
55754;PMS5003;41674;52.290;-1.474;2023-04-23T13:45:34;22;20;
55754;PMS5003;41674;52.290;-1.474;2023-04-23T13:48:03;20;18;
55754;PMS5003;41674;52.290;-1.474;2023-04-23T13:50:33;25;22;
55754;PMS5003;41674;52.290;-1.474;2023-04-23T13:53:02;32;26;
55754;PMS5003;41674;52.290;-1.474;2023-04-23T13:55:32;30;27;
55754;PMS5003;41674;52.290;-1.474;2023-04-23T13:58:02;34;27;
55754;PMS5003;41674;52.290;-1.474;2023-04-23T14:00:31;28;25;
55754;PMS5003;41674;52.290;-1.474;2023-04-23T14:03:01;30;28;
55754;PMS5003;41674;52.290;-1.474;2023-04-23T14:05:30;25;23;
55754;PMS5003;41674;52.290;-1.474;2023-04-23T14:08:00;30;26;
55754;PMS5003;41674;52.290;-1.474;2023-04-23T14:10:30;28;27;
55754;PMS5003;41674;52.290;-1.474;2023-04-23T14:12:59;25;24;
55754;PMS5003;41674;52.290;-1.474;2023-04-23T14:15:28;28;27;
55754;PMS5003;41674;52.290;-1.474;2023-04-23T14:17:58;29;28;
55754;PMS5003;41674;52.290;-1.474;2023-04-23T14:20:27;25;22;
55754;PMS5003;41674;52.290;-1.474;2023-04-23T14:23:00;29;24;
55754;PMS5003;41674;52.290;-1.474;2023-04-23T14:25:28;25;25;
55754;PMS5003;41674;52.290;-1.474;2023-04-23T14:27:56;30;27;
55754;PMS5003;41674;52.290;-1.474;2023-04-23T14:30:25;28;26;
55754;PMS5003;41674;52.290;-1.474;2023-04-23T14:32:54;30;30;
55754;PMS5003;41674;52.290;-1.474;2023-04-23T14:35:24;28;26;
55754;PMS5003;41674;52.290;-1.474;2023-04-23T14:37:54;27;24;
55754;PMS5003;41674;52.290;-1.474;2023-04-23T14:40:24;29;27;
55754;PMS5003;41674;52.290;-1.474;2023-04-23T14:42:53;32;28;
55754;PMS5003;41674;52.290;-1.474;2023-04-23T14:45:22;24;23;
55754;PMS5003;41674;52.290;-1.474;2023-04-23T14:47:52;33;29;
55754;PMS5003;41674;52.290;-1.474;2023-04-23T14:50:21;31;28;
55754;PMS5003;41674;52.290;-1.474;2023-04-23T14:52:50;30;26;
55754;PMS5003;41674;52.290;-1.474;2023-04-23T14:55:20;37;33;
55754;PMS5003;41674;52.290;-1.474;2023-04-23T14:57:48;27;25;
55754;PMS5003;41674;52.290;-1.474;2023-04-23T15:00:18;33;30;
55754;PMS5003;41674;52.290;-1.474;2023-04-23T15:02:48;29;27;
55754;PMS5003;41674;52.290;-1.474;2023-04-23T15:05:17;37;29;
55754;PMS5003;41674;52.290;-1.474;2023-04-23T15:07:46;31;29;
55754;PMS5003;41674;52.290;-1.474;2023-04-23T15:10:16;36;34;
55754;PMS5003;41674;52.290;-1.474;2023-04-23T15:12:48;36;33;
55754;PMS5003;41674;52.290;-1.474;2023-04-23T15:15:15;33;31;
55754;PMS5003;41674;52.290;-1.474;2023-04-23T15:17:43;40;36;
55754;PMS5003;41674;52.290;-1.474;2023-04-23T15:20:14;32;31;
55754;PMS5003;41674;52.290;-1.474;2023-04-23T15:22:42;33;31;
55754;PMS5003;41674;52.290;-1.474;2023-04-23T15:25:12;30;27;
55754;PMS5003;41674;52.290;-1.474;2023-04-23T15:27:41;28;27;
55754;PMS5003;41674;52.290;-1.474;2023-04-23T15:30:11;24;24;
55754;PMS5003;41674;52.290;-1.474;2023-04-23T15:32:41;30;29;
55754;PMS5003;41674;52.290;-1.474;2023-04-23T15:35:10;30;28;
55754;PMS5003;41674;52.290;-1.474;2023-04-23T15:37:39;27;25;
55754;PMS5003;41674;52.290;-1.474;2023-04-23T15:40:09;27;25;
55754;PMS5003;41674;52.290;-1.474;2023-04-23T15:42:38;28;25;
55754;PMS5003;41674;52.290;-1.474;2023-04-23T15:45:08;30;26;
55754;PMS5003;41674;52.290;-1.474;2023-04-23T15:47:37;26;23;
55754;PMS5003;41674;52.290;-1.474;2023-04-23T15:50:07;21;21;
55754;PMS5003;41674;52.290;-1.474;2023-04-23T15:52:36;28;22;
55754;PMS5003;41674;52.290;-1.474;2023-04-23T15:55:05;22;20;
55754;PMS5003;41674;52.290;-1.474;2023-04-23T15:57:35;19;18;
55754;PMS5003;41674;52.290;-1.474;2023-04-23T16:00:03;22;18;
55754;PMS5003;41674;52.290;-1.474;2023-04-23T16:02:32;25;21;
55754;PMS5003;41674;52.290;-1.474;2023-04-23T16:05:01;21;20;
55754;PMS5003;41674;52.290;-1.474;2023-04-23T16:07:30;32;27;
55754;PMS5003;41674;52.290;-1.474;2023-04-23T16:10:00;32;28;
55754;PMS5003;41674;52.290;-1.474;2023-04-23T16:12:29;28;26;
55754;PMS5003;41674;52.290;-1.474;2023-04-23T16:14:59;29;23;
55754;PMS5003;41674;52.290;-1.474;2023-04-23T16:17:28;25;23;
55754;PMS5003;41674;52.290;-1.474;2023-04-23T16:19:58;18;18;
55754;PMS5003;41674;52.290;-1.474;2023-04-23T16:22:27;23;20;
55754;PMS5003;41674;52.290;-1.474;2023-04-23T16:24:57;21;19;
55754;PMS5003;41674;52.290;-1.474;2023-04-23T16:27:26;22;21;
55754;PMS5003;41674;52.290;-1.474;2023-04-23T16:29:56;25;23;
55754;PMS5003;41674;52.290;-1.474;2023-04-23T16:32:25;24;23;
55754;PMS5003;41674;52.290;-1.474;2023-04-23T16:34:54;24;22;
55754;PMS5003;41674;52.290;-1.474;2023-04-23T16:37:24;27;23;
55754;PMS5003;41674;52.290;-1.474;2023-04-23T16:39:54;25;24;
55754;PMS5003;41674;52.290;-1.474;2023-04-23T16:42:24;28;25;